• Join FlightAware (Why Join?)
  • Login
  • US Flag 
03:37AM EDT


 

Airport Tracker/Info


-or-


 

Live Flight TrackerFlight Track Log ✈ N775NC ✈ 15-Oct-2013 ✈ KATL - KGSP

Flight Track Log - Related Links

Times and Time Zones

All times are in EDT time to prevent confusion due to time zone crossing. See the N775NC flight status page for this flight to view local times or setup timezone preferences in your user account.

Time Position Orientation Groundspeed Altitude Reporting Facility
EDT Latitude Longitude Course Direction KTS MPH feet Rate Location/Type
12:10PM 33.6308 -84.3906 59° Northeast 398 458 2,400  Level Atlanta Center
12:11PM 33.6122 -84.3156 107° East 240 276 4,700 2,220 Climbing Atlanta Center
12:12PM 33.6167 -84.2167 87° East 286 329 6,900 2,520 Climbing Atlanta TRACON
12:13PM 33.8608 -84.0444 58° Northeast  Level Estimated
12:13PM 33.6000 -84.1167 101° East 286 329 9,700  Level Atlanta TRACON
12:14PM 33.8949 -83.9344 70° East  Level FlightAware Approximate
12:14PM 33.6147 -84.0289 79° East 314 361 10,800  Level Atlanta Center
12:15PM 33.9288 -83.8244 70° East  Level FlightAware Approximate
12:15PM 33.6731 -83.9364 53° Northeast 314 361 12,900  Level Atlanta Center
12:16PM 33.9869 -83.7300 59° Northeast  Level Estimated
12:16PM 33.7294 -83.8414 54° Northeast 341 392 14,800  Level Atlanta Center
12:17PM 33.7875 -83.7389 56° Northeast 363 418 16,300 1,500 Climbing Atlanta Center
12:18PM 33.8519 -83.6261 55° Northeast 371 427 17,900 1,500 Climbing Atlanta Center
12:19PM 33.9183 -83.5231 52° Northeast 384 442 19,400 1,440 Climbing Atlanta Center
12:20PM 33.9931 -83.4225 48° Northeast 394 453 20,800 780 Climbing Atlanta Center
12:21PM 34.0656 -83.3117 52° Northeast 399 459 21,000 -1,020 Climbing Atlanta Center
12:22PM 34.1461 -83.2031 48° Northeast 429 494 18,800 -2,460 Descending Atlanta Center
12:23PM 34.2206 -83.1017 48° Northeast 416 479 16,100 -2,880 Descending Atlanta Center
12:24PM 34.2908 -83.0003 50° Northeast 390 449 13,100 -2,460 Descending Atlanta Center
12:25PM 34.3608 -82.9039 49° Northeast 383 441 11,200 -1,140 Descending Atlanta Center
12:26PM 34.4206 -82.8125 52° Northeast 368 423 10,900 -660 Descending Atlanta Center
12:27PM 34.4864 -82.7283 46° Northeast 348 400 9,900 -840 Descending Atlanta Center
12:28PM 34.5333 -82.6419 57° Northeast 326 375 9,300 -1,080 Descending Atlanta Center
12:29PM 34.5892 -82.5753 44° Northeast 296 341 7,800 -1,620 Descending Atlanta Center
12:30PM 34.6403 -82.5011 50° Northeast 282 325 6,100 -1,500 Descending Atlanta Center
12:31PM 34.6831 -82.4272 55° Northeast 272 313 4,900 -960 Descending Atlanta Center
12:32PM 34.7281 -82.3581 52° Northeast 267 307 4,200 -840 Descending Atlanta Center
12:33PM 34.7775 -82.3089 39° Northeast 244 281 3,300 -960 Descending Atlanta Center
12:34PM 34.8189 -82.2728 36° Northeast 226 260 2,300 -1,020 Descending Atlanta Center